createdAt,value
2022-08-10T00:01:16.602Z,101628.84
2022-08-10T00:03:21.764Z,101631.81
2022-08-10T00:05:24.832Z,101629.81
2022-08-10T00:07:32.750Z,101635.97
2022-08-10T00:09:35.005Z,101638.25
2022-08-10T00:12:05.839Z,101638.72
2022-08-10T00:14:18.460Z,101634.97
2022-08-10T00:16:21.498Z,101629.59
2022-08-10T00:18:34.401Z,101630.91
2022-08-10T00:20:40.711Z,101630.97
2022-08-10T00:22:53.057Z,101635.69
2022-08-10T00:25:24.618Z,101633.94
2022-08-10T00:28:02.325Z,101638.97
2022-08-10T00:30:04.457Z,101629.22
2022-08-10T00:32:06.614Z,101631.03
2022-08-10T00:34:23.914Z,101631.84
2022-08-10T00:36:37.969Z,101632.81
2022-08-10T00:38:42.900Z,101638.94
2022-08-10T00:40:50.972Z,101629.56
2022-08-10T00:43:00.838Z,101635.66
2022-08-10T00:45:11.060Z,101625.69
2022-08-10T00:47:35.765Z,101631.03
2022-08-10T00:49:49.658Z,101629.06
2022-08-10T00:52:02.660Z,101627.75
2022-08-10T00:54:04.707Z,101629.34
2022-08-10T00:57:14.300Z,101630.56
2022-08-10T00:58:53.788Z,101626.47
2022-08-10T01:00:56.818Z,101632.84
2022-08-10T01:03:05.839Z,101630.06
2022-08-10T01:05:20.580Z,101637.97
2022-08-10T01:07:49.536Z,101639.41
2022-08-10T01:10:10.081Z,101633.97
2022-08-10T01:12:52.586Z,101634.19
2022-08-10T01:15:39.293Z,101626.81
2022-08-10T01:17:51.584Z,101627.19
2022-08-10T01:20:07.008Z,101628.78
2022-08-10T01:22:30.518Z,101636.31
2022-08-10T01:25:16.786Z,101630.81
2022-08-10T01:27:27.350Z,101633.06
2022-08-10T01:30:21.017Z,101628.56
2022-08-10T01:32:42.385Z,101630.09
2022-08-10T01:34:55.500Z,101628.28
2022-08-10T01:37:17.356Z,101625.38
2022-08-10T01:39:26.725Z,101626.38
2022-08-10T01:41:46.446Z,101623.91
2022-08-10T01:44:03.950Z,101626.84
2022-08-10T01:46:15.023Z,101627.13
2022-08-10T01:48:35.937Z,101633.13
2022-08-10T01:50:53.247Z,101637.16
2022-08-10T01:53:07.942Z,101634.22
2022-08-10T01:55:15.437Z,101634.94
2022-08-10T01:57:27.791Z,101638.13
2022-08-10T02:00:10.057Z,101638.50
2022-08-10T02:02:20.915Z,101637.34
2022-08-10T02:04:31.049Z,101631.19
2022-08-10T02:06:40.144Z,101632.09
2022-08-10T02:08:57.089Z,101628.88
2022-08-10T02:11:29.228Z,101642.56
2022-08-10T02:13:52.638Z,101640.16
2022-08-10T02:16:02.115Z,101630.88
2022-08-10T02:18:08.948Z,101633.56
2022-08-10T02:20:21.557Z,101642.94
2022-08-10T02:22:38.098Z,101639.09
2022-08-10T02:24:47.977Z,101647.41
2022-08-10T02:26:58.014Z,101645.34
2022-08-10T02:29:12.510Z,101642.63
2022-08-10T02:31:18.705Z,101647.03
2022-08-10T02:33:56.244Z,101649.72
2022-08-10T02:36:02.157Z,101644.56
2022-08-10T02:38:59.205Z,101652.41
2022-08-10T02:42:18.118Z,101654.72
2022-08-10T02:45:18.408Z,101653.31
2022-08-10T02:46:13.964Z,101648.25
2022-08-10T02:48:42.140Z,101654.59
2022-08-10T02:50:56.207Z,101657.00
2022-08-10T02:53:54.723Z,101656.25
2022-08-10T02:56:20.185Z,101656.09
2022-08-10T02:58:38.146Z,101656.38
2022-08-10T03:00:50.017Z,101661.75
2022-08-10T03:02:55.045Z,101656.97
2022-08-10T03:05:07.375Z,101664.47
2022-08-10T03:07:44.514Z,101653.31
2022-08-10T03:09:48.942Z,101655.75
2022-08-10T03:12:35.834Z,101657.91
2022-08-10T03:14:34.477Z,101666.06
2022-08-10T03:16:39.432Z,101663.53
2022-08-10T03:18:46.925Z,101657.72
2022-08-10T03:20:50.188Z,101665.22
2022-08-10T03:22:55.314Z,101659.41
2022-08-10T03:25:22.423Z,101653.06
2022-08-10T03:27:24.621Z,101665.41
2022-08-10T03:30:28.172Z,101666.72
2022-08-10T03:32:25.730Z,101660.06
2022-08-10T03:34:36.629Z,101662.06
2022-08-10T03:37:06.323Z,101667.75
2022-08-10T03:39:15.523Z,101666.31
2022-08-10T03:41:23.821Z,101672.47
2022-08-10T03:43:37.129Z,101670.66
2022-08-10T03:45:55.200Z,101669.22
2022-08-10T03:48:20.157Z,101661.53
2022-08-10T03:50:45.721Z,101668.66
2022-08-10T03:52:47.928Z,101671.00
2022-08-10T03:54:53.370Z,101676.00
2022-08-10T03:57:35.733Z,101675.06
2022-08-10T03:59:57.836Z,101670.66
2022-08-10T04:02:45.457Z,101672.91
2022-08-10T04:04:31.476Z,101680.97
2022-08-10T04:06:33.623Z,101680.78
2022-08-10T04:08:52.901Z,101679.00
2022-08-10T04:11:00.767Z,101675.03
2022-08-10T04:13:09.646Z,101683.06
2022-08-10T04:15:27.625Z,101688.97
2022-08-10T04:18:04.298Z,101684.34
2022-08-10T04:19:59.636Z,101684.72
2022-08-10T04:22:17.006Z,101693.91
2022-08-10T04:24:45.321Z,101691.09
2022-08-10T04:26:47.723Z,101683.50
2022-08-10T04:28:58.740Z,101688.88
2022-08-10T04:31:10.146Z,101685.34
2022-08-10T04:33:18.348Z,101681.78
2022-08-10T04:35:29.931Z,101690.19
2022-08-10T04:37:47.627Z,101687.63
2022-08-10T04:40:28.749Z,101683.78
2022-08-10T04:43:02.132Z,101683.50
2022-08-10T04:45:12.048Z,101678.31
2022-08-10T04:47:16.737Z,101680.97
2022-08-10T04:49:56.101Z,101689.03
2022-08-10T04:52:00.750Z,101687.28
2022-08-10T04:54:07.207Z,101688.03
2022-08-10T04:56:31.771Z,101694.72
2022-08-10T04:58:38.212Z,101693.94
2022-08-10T05:00:51.383Z,101696.72
2022-08-10T05:03:21.234Z,101697.88
2022-08-10T05:05:38.287Z,101700.72
2022-08-10T05:07:54.291Z,101694.78
2022-08-10T05:10:08.302Z,101699.34
2022-08-10T05:12:20.852Z,101700.19
2022-08-10T05:14:30.829Z,101697.84
2022-08-10T05:17:00.518Z,101701.72
2022-08-10T05:19:04.437Z,101702.34
2022-08-10T05:21:56.967Z,101705.16
2022-08-10T05:23:39.129Z,101699.38
2022-08-10T05:25:51.071Z,101711.38
2022-08-10T05:27:57.570Z,101698.44
2022-08-10T05:30:01.239Z,101703.44
2022-08-10T05:32:06.957Z,101710.66
2022-08-10T05:34:27.793Z,101705.28
2022-08-10T05:36:48.687Z,101701.72
2022-08-10T05:38:52.411Z,101703.63
2022-08-10T05:41:01.527Z,101712.13
2022-08-10T05:43:03.851Z,101706.59
2022-08-10T05:45:27.836Z,101714.09
2022-08-10T05:48:54.365Z,101710.63
2022-08-10T05:49:56.013Z,101712.06
2022-08-10T05:52:10.040Z,101712.78
2022-08-10T05:54:15.809Z,101711.25
2022-08-10T05:56:54.833Z,101705.09
2022-08-10T05:59:06.217Z,101704.75
2022-08-10T06:01:21.476Z,101707.28
2022-08-10T06:03:58.697Z,101703.53
2022-08-10T06:06:10.635Z,101708.31
2022-08-10T06:08:22.166Z,101707.88
2022-08-10T06:10:35.882Z,101712.09
2022-08-10T06:13:30.832Z,101702.50
2022-08-10T06:15:51.750Z,101710.91
2022-08-10T06:18:21.082Z,101715.97
2022-08-10T06:20:23.284Z,101708.59
2022-08-10T06:22:33.431Z,101702.38
2022-08-10T06:25:21.467Z,101710.22
2022-08-10T06:27:15.024Z,101710.53
2022-08-10T06:29:36.786Z,101714.69
2022-08-10T06:31:53.566Z,101707.34
2022-08-10T06:33:57.948Z,101703.38
2022-08-10T06:36:24.286Z,101706.09
2022-08-10T06:38:32.643Z,101706.63
2022-08-10T06:40:39.780Z,101703.19
2022-08-10T06:42:46.804Z,101698.06
2022-08-10T06:45:15.917Z,101696.88
2022-08-10T06:47:49.845Z,101691.50
2022-08-10T06:50:56.284Z,101696.94
2022-08-10T06:53:52.929Z,101690.94
2022-08-10T06:55:58.352Z,101695.47
2022-08-10T06:58:03.799Z,101689.63
2022-08-10T07:00:10.421Z,101682.34
2022-08-10T07:02:55.293Z,101688.19
2022-08-10T07:05:17.480Z,101690.56
2022-08-10T07:07:37.661Z,101698.09
2022-08-10T07:09:40.763Z,101699.81
2022-08-10T07:11:51.250Z,101692.34
2022-08-10T07:14:15.858Z,101689.63
2022-08-10T07:16:35.351Z,101691.69
2022-08-10T07:18:42.429Z,101694.41
2022-08-10T07:20:48.806Z,101695.81
2022-08-10T07:23:50.648Z,101688.50
2022-08-10T07:25:21.794Z,101699.97
2022-08-10T07:27:26.537Z,101691.09
2022-08-10T07:29:55.147Z,101697.91
2022-08-10T07:32:02.146Z,101696.56
2022-08-10T07:34:12.172Z,101685.97
2022-08-10T07:36:29.716Z,101693.47
2022-08-10T07:38:44.039Z,101700.09
2022-08-10T07:41:00.584Z,101701.03
2022-08-10T07:43:18.011Z,101704.53
2022-08-10T07:45:30.663Z,101701.34
2022-08-10T07:48:05.117Z,101691.53
2022-08-10T07:50:12.432Z,101696.94
2022-08-10T07:52:15.506Z,101685.66
2022-08-10T07:54:20.585Z,101693.00
2022-08-10T07:56:48.006Z,101687.91
2022-08-10T07:58:59.508Z,101693.44
2022-08-10T08:01:02.134Z,101693.06
2022-08-10T08:03:07.815Z,101687.59
2022-08-10T08:05:12.375Z,101693.84
2022-08-10T08:07:44.250Z,101697.84
2022-08-10T08:09:57.905Z,101698.41
2022-08-10T08:12:10.803Z,101708.38
2022-08-10T08:14:15.644Z,101695.34
2022-08-10T08:16:21.965Z,101701.63
2022-08-10T08:18:27.462Z,101687.22
2022-08-10T08:20:31.701Z,101684.72
2022-08-10T08:24:06.417Z,101695.72
2022-08-10T08:25:01.680Z,101700.38
2022-08-10T08:27:06.228Z,101692.81
2022-08-10T08:29:11.133Z,101693.88
2022-08-10T08:31:15.681Z,101692.03
2022-08-10T08:33:41.347Z,101686.69
2022-08-10T08:35:45.827Z,101682.31
2022-08-10T08:38:31.389Z,101689.06
2022-08-10T08:40:16.374Z,101681.97
2022-08-10T08:42:51.096Z,101685.50
2022-08-10T08:45:02.049Z,101680.66
2022-08-10T08:48:02.074Z,101681.88
2022-08-10T08:50:04.468Z,101676.78
2022-08-10T08:52:18.295Z,101680.00
2022-08-10T08:54:37.232Z,101671.22
2022-08-10T08:57:11.464Z,101687.53
2022-08-10T08:59:51.109Z,101690.84
2022-08-10T09:02:19.015Z,101684.34
2022-08-10T09:04:46.334Z,101670.91
2022-08-10T09:07:59.709Z,101676.31
2022-08-10T09:10:15.233Z,101664.31
2022-08-10T09:13:02.054Z,101663.53
2022-08-10T09:15:40.976Z,101665.31
2022-08-10T09:18:13.149Z,101672.63
2022-08-10T09:20:22.894Z,101659.22
2022-08-10T09:22:32.736Z,101666.72
2022-08-10T09:24:59.704Z,101665.16
2022-08-10T09:27:08.260Z,101660.41
2022-08-10T09:29:27.044Z,101658.31
2022-08-10T09:33:05.321Z,101657.09
2022-08-10T09:36:26.580Z,101661.88
2022-08-10T09:36:51.158Z,101649.72
2022-08-10T09:40:58.180Z,101653.41
2022-08-10T09:46:05.240Z,101658.28
2022-08-10T09:48:19.888Z,101646.25
2022-08-10T09:53:56.551Z,101651.16
2022-08-10T09:56:36.549Z,101648.25
2022-08-10T09:59:59.661Z,101650.13
2022-08-10T10:02:02.635Z,101637.66
2022-08-10T10:04:10.627Z,101641.94
2022-08-10T10:06:24.086Z,101634.06
2022-08-10T10:09:10.652Z,101631.97
2022-08-10T10:11:42.340Z,101639.59
2022-08-10T10:14:02.780Z,101639.50
2022-08-10T10:16:52.378Z,101641.47
2022-08-10T10:19:10.452Z,101642.72
2022-08-10T10:21:23.986Z,101636.19
2022-08-10T10:24:21.187Z,101638.63
2022-08-10T10:26:30.391Z,101634.63
2022-08-10T10:31:25.374Z,101616.94
2022-08-10T10:33:38.409Z,101616.09
2022-08-10T10:35:55.754Z,101624.22
2022-08-10T10:38:01.779Z,101620.00
2022-08-10T10:40:06.824Z,101613.97
2022-08-10T10:42:34.991Z,101609.47
2022-08-10T10:45:14.938Z,101608.94
2022-08-10T10:47:51.636Z,101607.16
2022-08-10T10:50:19.553Z,101611.38
2022-08-10T10:52:48.698Z,101608.88
2022-08-10T10:55:27.620Z,101606.88
2022-08-10T10:57:58.825Z,101613.59
2022-08-10T11:00:12.193Z,101592.94
2022-08-10T11:02:54.756Z,101601.34
2022-08-10T11:04:59.559Z,101591.28
2022-08-10T11:07:04.241Z,101600.25
2022-08-10T11:10:06.030Z,101594.09
2022-08-10T11:12:03.570Z,101599.66
2022-08-10T11:14:29.583Z,101592.78
2022-08-10T11:16:57.690Z,101582.63
2022-08-10T11:20:00.130Z,101587.53
2022-08-10T11:22:23.237Z,101583.88
2022-08-10T11:24:49.695Z,101595.75
2022-08-10T11:27:02.564Z,101592.34
2022-08-10T11:29:25.367Z,101580.94
2022-08-10T11:31:37.991Z,101591.59
2022-08-10T11:34:47.235Z,101582.31
2022-08-10T11:36:50.910Z,101581.75
2022-08-10T11:39:18.208Z,101593.50
2022-08-10T11:42:09.838Z,101586.88
2022-08-10T11:44:30.995Z,101575.44
2022-08-10T11:46:36.901Z,101574.84
2022-08-10T11:49:04.978Z,101580.88
2022-08-10T11:51:21.459Z,101583.16
2022-08-10T11:53:39.326Z,101562.91
2022-08-10T11:55:46.313Z,101566.03
2022-08-10T11:58:25.506Z,101558.13
2022-08-10T12:00:32.602Z,101555.94
2022-08-10T12:03:06.038Z,101559.28
2022-08-10T12:05:18.343Z,101542.91
2022-08-10T12:10:06.915Z,101544.06
2022-08-10T12:10:10.716Z,101552.16
2022-08-10T12:12:08.354Z,101550.22
2022-08-10T12:14:22.167Z,101554.53
2022-08-10T12:16:31.930Z,101544.19
2022-08-10T12:18:49.093Z,101552.59
2022-08-10T12:20:56.495Z,101553.78
2022-08-10T12:23:30.288Z,101552.38
2022-08-10T12:25:56.616Z,101562.00
2022-08-10T12:28:10.039Z,101546.13
2022-08-10T12:30:16.187Z,101550.06
2022-08-10T12:32:41.917Z,101544.97
2022-08-10T12:34:50.548Z,101538.00
2022-08-10T12:37:24.823Z,101539.53
2022-08-10T12:39:43.782Z,101533.88
2022-08-10T12:42:39.351Z,101519.94
2022-08-10T12:44:48.662Z,101515.94
2022-08-10T12:47:10.378Z,101521.72
2022-08-10T12:49:26.861Z,101512.38
2022-08-10T12:51:30.683Z,101514.34
2022-08-10T12:53:32.648Z,101512.69
2022-08-10T12:55:39.153Z,101506.75
2022-08-10T12:57:42.240Z,101499.16
2022-08-10T13:00:07.251Z,101497.13
2022-08-10T13:02:32.005Z,101495.56
2022-08-10T13:04:37.453Z,101498.38
2022-08-10T13:06:47.672Z,101494.31
2022-08-10T13:09:08.774Z,101491.66
2022-08-10T13:12:37.208Z,101495.66
2022-08-10T13:13:40.096Z,101492.09
2022-08-10T13:15:49.446Z,101490.84
2022-08-10T13:17:55.985Z,101491.75
2022-08-10T13:20:12.929Z,101492.22
2022-08-10T13:22:17.846Z,101498.69
2022-08-10T13:24:32.136Z,101503.44
2022-08-10T13:27:09.086Z,101501.91
2022-08-10T13:29:02.883Z,101484.06
2022-08-10T13:32:02.395Z,101496.78
2022-08-10T13:34:40.656Z,101492.56
2022-08-10T13:36:16.098Z,101482.53
2022-08-10T13:38:22.203Z,101492.63
2022-08-10T13:40:26.110Z,101486.78
2022-08-10T13:42:38.567Z,101497.13
2022-08-10T13:44:47.486Z,101493.53
2022-08-10T13:46:52.726Z,101507.00
2022-08-10T13:48:58.381Z,101500.16
2022-08-10T13:51:03.747Z,101496.22
2022-08-10T13:53:14.725Z,101499.16
2022-08-10T13:55:20.707Z,101500.75
2022-08-10T13:57:27.328Z,101500.56
2022-08-10T14:00:34.983Z,101491.94
2022-08-10T14:01:56.066Z,101490.19
2022-08-10T14:04:02.119Z,101485.53
2022-08-10T14:06:05.516Z,101484.59
2022-08-10T14:08:13.806Z,101490.41
2022-08-10T14:10:17.364Z,101486.88
2022-08-10T14:12:31.945Z,101480.13
2022-08-10T14:14:37.669Z,101470.41
2022-08-10T14:16:42.949Z,101474.34
2022-08-10T14:18:49.948Z,101474.69
2022-08-10T14:20:54.137Z,101471.81
2022-08-10T14:23:07.927Z,101472.44
2022-08-10T14:25:12.739Z,101465.31
2022-08-10T14:27:19.305Z,101468.56
2022-08-10T14:29:22.513Z,101460.56
2022-08-10T14:31:34.671Z,101458.78
2022-08-10T14:33:39.298Z,101458.06
2022-08-10T14:36:20.427Z,101464.00
2022-08-10T14:38:16.036Z,101457.94
2022-08-10T14:40:25.882Z,101450.44
2022-08-10T14:42:49.440Z,101450.81
2022-08-10T14:44:58.418Z,101462.19
2022-08-10T14:47:08.521Z,101460.31
2022-08-10T14:49:29.368Z,101461.00
2022-08-10T14:51:52.162Z,101471.84
2022-08-10T14:54:05.229Z,101468.84
2022-08-10T14:56:17.065Z,101470.19
2022-08-10T14:58:24.874Z,101476.06
2022-08-10T15:00:37.682Z,101479.03
2022-08-10T15:02:56.081Z,101480.22
2022-08-10T15:05:00.702Z,101475.91
2022-08-10T15:07:12.077Z,101471.13
2022-08-10T15:09:20.153Z,101469.06
2022-08-10T15:12:13.200Z,101469.66
2022-08-10T15:14:14.874Z,101459.72
2022-08-10T15:16:13.493Z,101472.53
2022-08-10T15:18:16.580Z,101459.13
2022-08-10T15:20:23.869Z,101454.81
2022-08-10T15:22:42.792Z,101463.72
2022-08-10T15:25:00.513Z,101440.22
2022-08-10T15:27:08.765Z,101457.25
2022-08-10T15:29:25.001Z,101443.41
2022-08-10T15:31:33.404Z,101435.91
2022-08-10T15:34:07.606Z,101446.41
2022-08-10T15:36:35.175Z,101445.47
2022-08-10T15:38:41.772Z,101441.56
2022-08-10T15:40:54.363Z,101438.91
2022-08-10T15:43:05.594Z,101433.97
2022-08-10T15:45:23.991Z,101440.69
2022-08-10T15:47:46.143Z,101435.94
2022-08-10T15:49:58.946Z,101439.28
2022-08-10T15:52:12.966Z,101437.16
2022-08-10T15:54:54.493Z,101436.88
2022-08-10T15:57:13.334Z,101437.22
2022-08-10T15:59:27.416Z,101444.56
2022-08-10T16:02:04.125Z,101439.09
2022-08-10T16:04:22.287Z,101433.72
2022-08-10T16:06:44.952Z,101438.59
2022-08-10T16:08:56.969Z,101443.44
2022-08-10T16:11:19.219Z,101431.13
2022-08-10T16:13:59.491Z,101435.63
2022-08-10T16:16:01.150Z,101432.22
2022-08-10T16:18:14.516Z,101427.88
2022-08-10T16:20:25.657Z,101434.66
2022-08-10T16:22:34.479Z,101431.59
2022-08-10T16:24:41.702Z,101439.22
2022-08-10T16:26:50.839Z,101434.03
2022-08-10T16:28:59.934Z,101435.56
2022-08-10T16:31:05.431Z,101432.59
2022-08-10T16:33:10.644Z,101436.31
2022-08-10T16:35:17.800Z,101437.16
2022-08-10T16:37:22.516Z,101437.22
2022-08-10T16:40:00.190Z,101434.34
2022-08-10T16:42:03.234Z,101432.03
2022-08-10T16:44:11.938Z,101437.50
2022-08-10T16:46:22.028Z,101440.75
2022-08-10T16:48:50.135Z,101439.09
2022-08-10T16:50:59.404Z,101440.38
2022-08-10T16:53:04.898Z,101432.41
2022-08-10T16:55:24.622Z,101433.22
2022-08-10T16:57:41.512Z,101434.09
2022-08-10T16:59:48.305Z,101433.69
2022-08-10T17:01:54.116Z,101438.31
2022-08-10T17:04:09.891Z,101434.53
2022-08-10T17:06:18.702Z,101439.38
2022-08-10T17:08:21.957Z,101444.44
2022-08-10T17:10:24.839Z,101447.81
2022-08-10T17:12:30.522Z,101442.78
2022-08-10T17:14:32.814Z,101433.59
2022-08-10T17:16:40.805Z,101441.97
2022-08-10T17:18:47.002Z,101435.50
2022-08-10T17:20:51.611Z,101439.53
2022-08-10T17:22:58.407Z,101441.91
2022-08-10T17:25:10.999Z,101440.84
2022-08-10T17:28:04.204Z,101443.44
2022-08-10T17:29:58.076Z,101446.19
2022-08-10T17:32:14.923Z,101443.13
2022-08-10T17:34:23.685Z,101448.88
2022-08-10T17:36:32.534Z,101442.38
2022-08-10T17:38:40.441Z,101447.53
2022-08-10T17:41:00.975Z,101444.88
2022-08-10T17:43:03.860Z,101445.78
2022-08-10T17:45:13.579Z,101445.47
2022-08-10T17:47:27.764Z,101452.63
2022-08-10T17:49:35.019Z,101440.50
2022-08-10T17:51:42.741Z,101444.66
2022-08-10T17:53:51.119Z,101451.97
2022-08-10T17:55:58.854Z,101447.59
2022-08-10T17:58:11.611Z,101452.19
2022-08-10T18:00:15.364Z,101456.13
2022-08-10T18:02:25.511Z,101448.19
2022-08-10T18:04:34.158Z,101458.44
2022-08-10T18:06:44.736Z,101460.69
2022-08-10T18:08:58.780Z,101462.09
2022-08-10T18:11:02.210Z,101467.63
2022-08-10T18:13:05.539Z,101463.88
2022-08-10T18:15:14.026Z,101467.88
2022-08-10T18:17:32.182Z,101464.63
2022-08-10T18:19:44.144Z,101469.69
2022-08-10T18:21:48.839Z,101471.66
2022-08-10T18:23:53.324Z,101477.00
2022-08-10T18:26:02.893Z,101479.56
2022-08-10T18:28:11.362Z,101471.53
2022-08-10T18:30:15.301Z,101473.44
2022-08-10T18:32:20.681Z,101477.66
2022-08-10T18:34:26.364Z,101481.94
2022-08-10T18:36:29.462Z,101480.97
2022-08-10T18:38:35.615Z,101480.13
2022-08-10T18:40:41.589Z,101476.59
2022-08-10T18:42:55.918Z,101479.09
2022-08-10T18:45:07.338Z,101478.72
2022-08-10T18:47:16.851Z,101477.63
2022-08-10T18:49:59.187Z,101479.09
2022-08-10T18:52:07.268Z,101483.47
2022-08-10T18:54:39.912Z,101484.38
2022-08-10T18:56:57.920Z,101487.47
2022-08-10T18:59:03.251Z,101487.38
2022-08-10T19:01:36.139Z,101486.88
2022-08-10T19:04:24.631Z,101483.06
2022-08-10T19:06:49.228Z,101488.03
2022-08-10T19:09:46.737Z,101488.44
2022-08-10T19:12:01.257Z,101493.69
2022-08-10T19:14:45.718Z,101491.97
2022-08-10T19:17:10.232Z,101487.78
2022-08-10T19:19:49.978Z,101497.22
2022-08-10T19:22:09.133Z,101496.09
2022-08-10T19:24:46.504Z,101500.19
2022-08-10T19:27:09.690Z,101500.19
2022-08-10T19:30:00.993Z,101492.34
2022-08-10T19:32:12.818Z,101498.16
2022-08-10T19:34:37.947Z,101509.75
2022-08-10T19:37:07.647Z,101499.47
2022-08-10T19:39:18.071Z,101500.38
2022-08-10T19:41:44.334Z,101501.78
2022-08-10T19:44:19.077Z,101501.47
2022-08-10T19:46:39.526Z,101504.72
2022-08-10T19:48:48.282Z,101501.28
2022-08-10T19:51:15.557Z,101507.63
2022-08-10T19:53:26.840Z,101501.19
2022-08-10T19:55:28.968Z,101503.94
2022-08-10T19:57:52.361Z,101503.81
2022-08-10T20:00:15.130Z,101503.09
2022-08-10T20:02:29.162Z,101508.19
2022-08-10T20:04:36.636Z,101508.66
2022-08-10T20:07:05.536Z,101509.34
2022-08-10T20:09:38.605Z,101516.47
2022-08-10T20:12:03.271Z,101504.38
2022-08-10T20:14:21.932Z,101503.91
2022-08-10T20:16:29.429Z,101505.16
2022-08-10T20:18:37.672Z,101502.25
2022-08-10T20:20:47.276Z,101500.09
2022-08-10T20:22:54.629Z,101503.63
2022-08-10T20:25:27.922Z,101503.81
2022-08-10T20:28:14.584Z,101504.09
2022-08-10T20:30:15.989Z,101500.09
2022-08-10T20:32:25.351Z,101498.94
2022-08-10T20:34:33.128Z,101497.25
2022-08-10T20:36:44.169Z,101498.75
2022-08-10T20:39:02.765Z,101502.97
2022-08-10T20:41:22.312Z,101498.59
2022-08-10T20:44:00.995Z,101495.53
2022-08-10T20:46:24.196Z,101495.31
2022-08-10T20:48:40.673Z,101497.13
2022-08-10T20:51:09.295Z,101498.66
2022-08-10T20:53:22.285Z,101500.41
2022-08-10T20:55:32.441Z,101499.69
2022-08-10T20:58:20.735Z,101498.81
2022-08-10T21:00:23.489Z,101499.75
2022-08-10T21:02:50.358Z,101499.41
2022-08-10T21:05:01.412Z,101488.50
2022-08-10T21:08:05.243Z,101482.78
2022-08-10T21:10:39.231Z,101487.13
2022-08-10T21:13:09.060Z,101490.00
2022-08-10T21:15:25.927Z,101494.69
2022-08-10T21:17:53.787Z,101491.63
2022-08-10T21:20:28.695Z,101489.56
2022-08-10T21:22:54.727Z,101496.94
2022-08-10T21:25:04.318Z,101492.00
2022-08-10T21:27:47.148Z,101496.75
2022-08-10T21:30:09.574Z,101494.50
2022-08-10T21:32:38.349Z,101488.91
2022-08-10T21:34:54.541Z,101493.88
2022-08-10T21:37:08.326Z,101502.22
2022-08-10T21:39:41.916Z,101491.78
2022-08-10T21:42:34.680Z,101499.06
2022-08-10T21:45:18.352Z,101493.00
2022-08-10T21:48:06.406Z,101493.19
2022-08-10T21:50:36.896Z,101490.16
2022-08-10T21:53:47.016Z,101497.22
2022-08-10T21:57:07.258Z,101499.75
2022-08-10T21:59:43.490Z,101505.00
2022-08-10T22:05:05.098Z,101512.25
2022-08-10T22:07:27.934Z,101506.00
2022-08-10T22:09:55.283Z,101507.53
2022-08-10T22:12:24.847Z,101509.03
2022-08-10T22:14:59.782Z,101506.34
2022-08-10T22:17:59.381Z,101497.59
2022-08-10T22:20:11.749Z,101505.69
2022-08-10T22:22:40.345Z,101503.47
2022-08-10T22:25:16.901Z,101498.88
2022-08-10T22:27:59.177Z,101488.59
2022-08-10T22:30:23.961Z,101496.19
2022-08-10T22:33:21.992Z,101497.19
2022-08-10T22:35:45.223Z,101483.41
2022-08-10T22:38:40.077Z,101489.13
2022-08-10T22:41:05.485Z,101500.03
2022-08-10T22:43:36.626Z,101497.56
2022-08-10T22:46:07.356Z,101496.19
2022-08-10T22:48:27.981Z,101493.13
2022-08-10T22:50:30.753Z,101488.94
2022-08-10T22:53:03.206Z,101482.34
2022-08-10T22:55:34.729Z,101487.75
2022-08-10T22:58:03.854Z,101483.34
2022-08-10T23:00:17.953Z,101479.03
2022-08-10T23:02:33.812Z,101480.38
2022-08-10T23:04:38.363Z,101482.06
2022-08-10T23:07:06.540Z,101487.25
2022-08-10T23:09:13.261Z,101489.78
2022-08-10T23:11:25.057Z,101490.97
2022-08-10T23:13:36.032Z,101489.16
2022-08-10T23:16:20.981Z,101488.28
2022-08-10T23:18:55.458Z,101486.47
2022-08-10T23:21:01.165Z,101484.28
2022-08-10T23:23:09.467Z,101485.97
2022-08-10T23:25:16.629Z,101490.84
2022-08-10T23:27:39.356Z,101486.47
2022-08-10T23:30:09.749Z,101483.69
2022-08-10T23:32:10.971Z,101488.31
2022-08-10T23:34:15.096Z,101491.69
2022-08-10T23:36:33.418Z,101486.28
2022-08-10T23:38:37.785Z,101480.09
2022-08-10T23:40:45.517Z,101483.59
2022-08-10T23:42:53.372Z,101477.00
2022-08-10T23:45:02.725Z,101481.25
2022-08-10T23:47:05.542Z,101486.06
2022-08-10T23:49:11.923Z,101485.38
2022-08-10T23:51:17.435Z,101479.50
2022-08-10T23:53:31.858Z,101484.44
2022-08-10T23:55:39.225Z,101480.75
2022-08-10T23:57:58.349Z,101475.84
